createdAt,value
2023-05-14T00:00:21.920Z,46.55
2023-05-14T00:02:48.633Z,46.87
2023-05-14T00:05:15.382Z,46.78
2023-05-14T00:07:41.763Z,47.92
2023-05-14T00:10:08.421Z,47.03
2023-05-14T00:12:34.800Z,47.36
2023-05-14T00:15:01.336Z,47.03
2023-05-14T00:17:27.774Z,46.99
2023-05-14T00:19:54.178Z,47.60
2023-05-14T00:22:20.563Z,47.29
2023-05-14T00:24:46.943Z,48.13
2023-05-14T00:27:13.366Z,47.63
2023-05-14T00:29:42.633Z,48.52
2023-05-14T00:32:09.040Z,48.38
2023-05-14T00:34:36.081Z,47.74
2023-05-14T00:37:02.456Z,47.89
2023-05-14T00:39:28.864Z,49.17
2023-05-14T00:41:55.264Z,50.86
2023-05-14T00:44:21.641Z,51.13
2023-05-14T00:46:48.383Z,50.56
2023-05-14T00:49:15.645Z,50.80
2023-05-14T00:51:42.891Z,51.02
2023-05-14T00:54:09.452Z,50.45
2023-05-14T00:56:36.077Z,50.42
2023-05-14T00:59:02.454Z,50.90
2023-05-14T01:01:28.964Z,51.04
2023-05-14T01:03:57.901Z,50.38
2023-05-14T01:06:46.147Z,50.46
2023-05-14T01:09:23.035Z,50.73
2023-05-14T01:11:59.797Z,50.75
2023-05-14T01:14:29.125Z,50.79
2023-05-14T01:16:58.719Z,50.62
2023-05-14T01:19:34.237Z,50.36
2023-05-14T01:22:00.611Z,51.17
2023-05-14T01:24:27.524Z,51.86
2023-05-14T01:27:00.414Z,51.60
2023-05-14T01:29:29.557Z,51.35
2023-05-14T01:31:57.866Z,50.93
2023-05-14T01:34:26.270Z,51.03
2023-05-14T01:36:53.539Z,50.68
2023-05-14T01:39:20.579Z,51.76
2023-05-14T01:41:48.502Z,51.21
2023-05-14T01:44:14.943Z,50.99
2023-05-14T01:46:41.367Z,51.15
2023-05-14T01:49:08.001Z,51.44
2023-05-14T01:51:34.423Z,51.59
2023-05-14T01:54:00.794Z,51.61
2023-05-14T01:56:27.211Z,51.39
2023-05-14T01:58:53.818Z,51.01
2023-05-14T02:01:20.367Z,51.43
2023-05-14T02:03:46.817Z,51.06
2023-05-14T02:06:13.302Z,51.37
2023-05-14T02:08:39.951Z,50.67
2023-05-14T02:11:06.308Z,50.57
2023-05-14T02:13:32.685Z,51.08
2023-05-14T02:15:59.116Z,50.17
2023-05-14T02:18:25.685Z,49.42
2023-05-14T02:20:52.108Z,49.11
2023-05-14T02:23:18.725Z,49.47
2023-05-14T02:25:45.910Z,49.38
2023-05-14T02:28:12.296Z,49.33
2023-05-14T02:30:38.710Z,49.11
2023-05-14T02:33:05.175Z,48.74
2023-05-14T02:35:31.601Z,48.46
2023-05-14T02:37:59.455Z,48.16
2023-05-14T02:40:26.091Z,48.99
2023-05-14T02:42:52.637Z,48.57
2023-05-14T02:45:19.005Z,48.49
2023-05-14T02:47:46.123Z,47.92
2023-05-14T02:50:12.540Z,48.22
2023-05-14T02:52:38.932Z,48.27
2023-05-14T02:55:06.193Z,48.01
2023-05-14T02:57:32.585Z,47.31
2023-05-14T02:59:59.024Z,47.68
2023-05-14T03:02:25.997Z,47.78
2023-05-14T03:04:52.639Z,47.13
2023-05-14T03:07:19.009Z,47.39
2023-05-14T03:09:45.471Z,47.44
2023-05-14T03:12:12.819Z,47.90
2023-05-14T03:14:39.202Z,47.03
2023-05-14T03:17:05.912Z,47.74
2023-05-14T03:19:32.343Z,47.14
2023-05-14T03:21:58.715Z,47.10
2023-05-14T03:24:25.405Z,47.46
2023-05-14T03:26:51.778Z,47.40
2023-05-14T03:29:18.234Z,47.25
2023-05-14T03:31:45.145Z,47.53
2023-05-14T03:34:11.587Z,46.93
2023-05-14T03:36:39.657Z,46.86
2023-05-14T03:39:09.466Z,45.94
2023-05-14T03:41:36.311Z,45.77
2023-05-14T03:44:02.704Z,46.38
2023-05-14T03:46:29.077Z,45.74
2023-05-14T03:48:55.502Z,45.37
2023-05-14T03:51:21.908Z,45.57
2023-05-14T03:53:48.266Z,45.88
2023-05-14T03:56:14.624Z,46.26
2023-05-14T03:58:41.002Z,45.33
2023-05-14T04:01:07.390Z,45.16
2023-05-14T04:03:33.888Z,45.83
2023-05-14T04:06:00.411Z,45.38
2023-05-14T04:08:26.775Z,45.54
2023-05-14T04:10:53.132Z,46.09
2023-05-14T04:13:19.513Z,45.34
2023-05-14T04:15:45.885Z,45.77
2023-05-14T04:18:12.351Z,45.39
2023-05-14T04:20:38.775Z,45.87
2023-05-14T04:23:05.145Z,44.93
2023-05-14T04:25:31.524Z,45.24
2023-05-14T04:27:58.625Z,45.78
2023-05-14T04:30:25.224Z,45.53
2023-05-14T04:32:51.764Z,45.06
2023-05-14T04:35:18.256Z,44.68
2023-05-14T04:37:44.691Z,45.42
2023-05-14T04:40:11.303Z,45.04
2023-05-14T04:42:38.683Z,44.52
2023-05-14T04:45:06.708Z,44.62
2023-05-14T04:47:33.134Z,44.66
2023-05-14T04:49:59.584Z,44.38
2023-05-14T04:52:26.151Z,44.80
2023-05-14T04:54:52.625Z,43.92
2023-05-14T04:57:19.015Z,43.46
2023-05-14T04:59:45.501Z,43.91
2023-05-14T05:02:11.875Z,43.59
2023-05-14T05:04:38.799Z,43.16
2023-05-14T05:07:05.745Z,43.36
2023-05-14T05:09:32.155Z,42.99
2023-05-14T05:11:58.703Z,43.41
2023-05-14T05:14:25.055Z,42.90
2023-05-14T05:16:51.478Z,43.11
2023-05-14T05:19:17.966Z,43.01
2023-05-14T05:21:44.590Z,43.10
2023-05-14T05:24:11.064Z,42.95
2023-05-14T05:26:37.515Z,41.97
2023-05-14T05:29:04.519Z,41.89
2023-05-14T05:31:31.833Z,42.54
2023-05-14T05:34:01.360Z,41.79
2023-05-14T05:36:28.642Z,42.59
2023-05-14T05:38:55.413Z,41.12
2023-05-14T05:41:22.455Z,41.30
2023-05-14T05:43:48.813Z,41.37
2023-05-14T05:46:15.220Z,41.52
2023-05-14T05:48:41.592Z,40.99
2023-05-14T05:51:08.121Z,41.19
2023-05-14T05:53:34.485Z,41.18
2023-05-14T05:56:00.945Z,41.33
2023-05-14T05:58:27.429Z,41.48
2023-05-14T06:00:53.823Z,41.47
2023-05-14T06:03:20.383Z,41.24
2023-05-14T06:05:47.036Z,40.85
2023-05-14T06:08:13.908Z,41.43
2023-05-14T06:10:40.289Z,40.95
2023-05-14T06:13:06.963Z,40.50
2023-05-14T06:15:33.351Z,41.04
2023-05-14T06:17:59.765Z,40.05
2023-05-14T06:20:26.505Z,40.23
2023-05-14T06:22:53.078Z,40.63
2023-05-14T06:25:19.609Z,40.01
2023-05-14T06:27:45.999Z,40.58
2023-05-14T06:30:12.907Z,40.05
2023-05-14T06:32:39.363Z,39.99
2023-05-14T06:35:06.278Z,39.85
2023-05-14T06:37:32.633Z,39.58
2023-05-14T06:40:00.992Z,39.01
2023-05-14T06:42:27.435Z,38.51
2023-05-14T06:44:54.518Z,38.42
2023-05-14T06:47:20.916Z,38.33
2023-05-14T06:49:47.287Z,37.94
2023-05-14T06:52:13.660Z,38.03
2023-05-14T06:54:40.022Z,37.31
2023-05-14T06:57:06.402Z,37.57
2023-05-14T06:59:33.225Z,37.92
2023-05-14T07:01:59.768Z,37.42
2023-05-14T07:04:26.245Z,36.90
2023-05-14T07:06:52.689Z,36.59
2023-05-14T07:09:19.045Z,36.21
2023-05-14T07:11:45.589Z,36.55
2023-05-14T07:14:11.983Z,36.32
2023-05-14T07:16:38.402Z,36.51
2023-05-14T07:19:04.858Z,36.20
2023-05-14T07:21:32.410Z,35.73
2023-05-14T07:23:58.809Z,35.93
2023-05-14T07:26:25.224Z,35.44
2023-05-14T07:28:51.608Z,35.98
2023-05-14T07:31:18.048Z,36.71
2023-05-14T07:33:44.642Z,35.95
2023-05-14T07:36:11.042Z,35.94
2023-05-14T07:38:37.417Z,36.71
2023-05-14T07:41:04.076Z,35.60
2023-05-14T07:43:31.044Z,34.77
2023-05-14T07:45:57.413Z,34.89
2023-05-14T07:48:23.854Z,34.19
2023-05-14T07:50:51.522Z,34.80
2023-05-14T07:53:17.897Z,34.26
2023-05-14T07:55:45.313Z,34.19
2023-05-14T07:58:11.683Z,33.48
2023-05-14T08:00:38.035Z,33.51
2023-05-14T08:03:05.160Z,33.45
2023-05-14T08:05:32.916Z,33.77
2023-05-14T08:07:59.319Z,33.68
2023-05-14T08:10:26.026Z,33.74
2023-05-14T08:12:52.715Z,32.70
2023-05-14T08:15:19.128Z,33.19
2023-05-14T08:17:45.627Z,32.15
2023-05-14T08:20:12.217Z,33.21
2023-05-14T08:22:38.623Z,32.51
2023-05-14T08:25:06.410Z,31.76
2023-05-14T08:27:32.816Z,32.27
2023-05-14T08:29:59.181Z,31.48
2023-05-14T08:32:25.630Z,31.61
2023-05-14T08:34:52.335Z,32.38
2023-05-14T08:37:18.838Z,32.15
2023-05-14T08:39:45.189Z,31.78
2023-05-14T08:42:12.850Z,31.73
2023-05-14T08:44:50.008Z,30.67
2023-05-14T08:47:21.169Z,31.66
2023-05-14T08:49:54.435Z,30.66
2023-05-14T08:52:22.645Z,31.21
2023-05-14T08:54:50.785Z,30.95
2023-05-14T08:57:18.704Z,30.90
2023-05-14T08:59:45.169Z,30.40
2023-05-14T09:02:15.148Z,30.27
2023-05-14T09:04:42.471Z,29.96
2023-05-14T09:07:09.075Z,29.03
2023-05-14T09:09:37.199Z,29.43
2023-05-14T09:12:03.804Z,28.73
2023-05-14T09:14:30.182Z,29.79
2023-05-14T09:16:56.995Z,29.65
2023-05-14T09:19:23.929Z,28.84
2023-05-14T09:21:50.522Z,29.38
2023-05-14T09:24:25.022Z,28.83
2023-05-14T09:26:53.383Z,29.39
2023-05-14T09:29:19.915Z,30.75
2023-05-14T09:31:46.552Z,28.51
2023-05-14T09:34:35.116Z,29.56
2023-05-14T09:37:03.883Z,30.85
2023-05-14T09:39:31.117Z,30.37
2023-05-14T09:41:57.777Z,29.85
2023-05-14T09:44:25.530Z,30.10
2023-05-14T09:46:53.378Z,29.81
2023-05-14T09:49:20.400Z,29.94
2023-05-14T09:51:48.179Z,29.59
2023-05-14T09:54:14.653Z,29.66
2023-05-14T09:56:42.096Z,29.64
2023-05-14T09:59:08.476Z,29.30
2023-05-14T10:01:35.966Z,28.72
2023-05-14T10:04:06.275Z,28.76
2023-05-14T10:06:37.052Z,28.79
2023-05-14T10:09:05.805Z,28.97
2023-05-14T10:11:35.514Z,29.70
2023-05-14T10:14:17.948Z,30.24
2023-05-14T10:16:50.471Z,30.07
2023-05-14T10:19:19.427Z,31.13
2023-05-14T10:21:49.854Z,30.26
2023-05-14T10:24:16.922Z,30.90
2023-05-14T10:26:43.380Z,30.99
2023-05-14T10:29:10.437Z,30.78
2023-05-14T10:31:54.182Z,30.80
2023-05-14T10:34:46.104Z,32.24
2023-05-14T10:37:18.074Z,31.82
2023-05-14T10:39:50.647Z,31.51
2023-05-14T10:42:28.890Z,32.01
2023-05-14T10:44:58.746Z,31.80
2023-05-14T10:47:29.230Z,30.60
2023-05-14T10:49:57.914Z,29.76
2023-05-14T10:52:24.987Z,30.26
2023-05-14T10:54:55.842Z,29.59
2023-05-14T10:57:24.086Z,30.15
2023-05-14T10:59:56.098Z,31.10
2023-05-14T11:02:31.126Z,30.03
2023-05-14T11:05:00.244Z,30.20
2023-05-14T11:07:35.435Z,30.04
2023-05-14T11:10:12.373Z,29.50
2023-05-14T11:12:41.338Z,29.28
2023-05-14T11:15:19.420Z,30.52
2023-05-14T11:17:47.354Z,30.13
2023-05-14T11:20:14.682Z,30.01
2023-05-14T11:22:42.528Z,30.99
2023-05-14T11:25:09.773Z,30.81
2023-05-14T11:27:38.673Z,30.70
2023-05-14T11:30:06.569Z,30.47
2023-05-14T11:32:33.400Z,30.29
2023-05-14T11:34:59.756Z,30.79
2023-05-14T11:37:26.160Z,30.76
2023-05-14T11:39:54.505Z,30.96
2023-05-14T11:42:22.396Z,30.72
2023-05-14T11:44:51.610Z,30.70
2023-05-14T11:47:19.897Z,29.91
2023-05-14T11:49:46.797Z,30.59
2023-05-14T11:52:14.803Z,30.20
2023-05-14T11:54:42.944Z,29.97
2023-05-14T11:57:17.729Z,30.14
2023-05-14T11:59:44.413Z,29.93
2023-05-14T12:02:16.070Z,29.96
2023-05-14T12:04:43.578Z,30.08
2023-05-14T12:07:15.619Z,30.42
2023-05-14T12:09:49.217Z,30.35
2023-05-14T12:12:18.932Z,30.90
2023-05-14T12:14:45.509Z,30.68
2023-05-14T12:17:20.089Z,31.11
2023-05-14T12:19:54.220Z,31.10
2023-05-14T12:22:22.388Z,30.89
2023-05-14T12:24:59.301Z,29.83
2023-05-14T12:27:27.824Z,30.21
2023-05-14T12:30:19.241Z,29.78
2023-05-14T12:32:47.127Z,29.00
2023-05-14T12:35:13.573Z,29.02
2023-05-14T12:37:40.074Z,28.78
2023-05-14T12:40:09.365Z,28.29
2023-05-14T12:42:36.464Z,29.30
2023-05-14T12:45:05.609Z,28.75
2023-05-14T12:47:32.349Z,29.79
2023-05-14T12:49:58.913Z,28.89
2023-05-14T12:52:36.889Z,28.59
2023-05-14T12:55:05.209Z,28.91
2023-05-14T12:57:31.673Z,28.12
2023-05-14T12:59:58.128Z,28.41
2023-05-14T13:02:24.469Z,28.14
2023-05-14T13:04:50.846Z,27.56
2023-05-14T13:07:17.251Z,27.57
2023-05-14T13:09:43.609Z,27.26
2023-05-14T13:12:10.051Z,26.95
2023-05-14T13:14:36.488Z,26.42
2023-05-14T13:17:04.202Z,25.15
2023-05-14T13:19:30.734Z,25.91
2023-05-14T13:21:57.094Z,26.31
2023-05-14T13:24:24.963Z,26.35
2023-05-14T13:26:51.357Z,26.85
2023-05-14T13:29:17.722Z,26.69
2023-05-14T13:31:44.257Z,27.21
2023-05-14T13:34:10.702Z,27.67
2023-05-14T13:36:39.606Z,28.25
2023-05-14T13:39:06.852Z,27.70
2023-05-14T13:41:37.798Z,27.59
2023-05-14T13:44:04.993Z,27.74
2023-05-14T13:46:31.472Z,28.85
2023-05-14T13:48:57.867Z,28.83
2023-05-14T13:51:24.256Z,28.39
2023-05-14T13:53:50.617Z,28.18
2023-05-14T13:56:16.992Z,28.62
2023-05-14T13:58:43.357Z,27.88
2023-05-14T14:01:09.818Z,27.73
2023-05-14T14:03:36.215Z,28.48
2023-05-14T14:06:02.657Z,28.47
2023-05-14T14:08:29.056Z,27.43
2023-05-14T14:10:55.709Z,27.49
2023-05-14T14:13:22.809Z,28.16
2023-05-14T14:15:49.961Z,27.96
2023-05-14T14:18:16.444Z,27.99
2023-05-14T14:20:42.815Z,28.29
2023-05-14T14:23:09.175Z,28.12
2023-05-14T14:25:35.559Z,26.76
2023-05-14T14:28:06.042Z,27.70
2023-05-14T14:30:32.484Z,27.27
2023-05-14T14:33:01.153Z,27.09
2023-05-14T14:35:27.698Z,27.24
2023-05-14T14:37:55.604Z,28.26
2023-05-14T14:40:23.650Z,28.13
2023-05-14T14:42:50.190Z,27.41
2023-05-14T14:45:16.544Z,27.67
2023-05-14T14:47:45.997Z,28.18
2023-05-14T14:50:13.033Z,27.79
2023-05-14T14:52:40.768Z,27.70
2023-05-14T14:55:07.398Z,27.66
2023-05-14T14:57:33.767Z,27.91
2023-05-14T15:00:02.103Z,27.56
2023-05-14T15:02:29.100Z,27.37
2023-05-14T15:04:55.759Z,28.62
2023-05-14T15:07:22.662Z,27.44
2023-05-14T15:09:49.029Z,26.88
2023-05-14T15:12:17.032Z,26.87
2023-05-14T15:14:43.490Z,27.56
2023-05-14T15:17:10.421Z,27.58
2023-05-14T15:19:37.011Z,27.15
2023-05-14T15:22:03.918Z,27.32
2023-05-14T15:24:30.392Z,27.07
2023-05-14T15:26:56.763Z,27.79
2023-05-14T15:29:23.152Z,27.07
2023-05-14T15:31:49.571Z,29.04
2023-05-14T15:34:16.243Z,27.68
2023-05-14T15:36:42.616Z,27.82
2023-05-14T15:39:10.374Z,27.69
2023-05-14T15:41:36.851Z,27.96
2023-05-14T15:44:03.263Z,27.37
2023-05-14T15:46:30.482Z,27.37
2023-05-14T15:48:57.890Z,27.31
2023-05-14T15:51:24.269Z,28.18
2023-05-14T15:53:53.291Z,28.09
2023-05-14T15:56:20.737Z,27.58
2023-05-14T15:58:48.192Z,27.42
2023-05-14T16:01:14.613Z,27.48
2023-05-14T16:03:41.160Z,28.23
2023-05-14T16:06:07.627Z,27.89
2023-05-14T16:08:33.982Z,28.46
2023-05-14T16:11:00.341Z,27.73
2023-05-14T16:13:26.795Z,27.67
2023-05-14T16:15:53.277Z,28.30
2023-05-14T16:18:19.860Z,27.97
2023-05-14T16:20:46.232Z,27.38
2023-05-14T16:23:12.596Z,27.56
2023-05-14T16:25:38.951Z,27.40
2023-05-14T16:28:05.409Z,24.02
2023-05-14T16:30:31.956Z,24.46
2023-05-14T16:32:58.372Z,26.12
2023-05-14T16:35:24.778Z,27.15
2023-05-14T16:37:51.186Z,26.94
2023-05-14T16:40:19.571Z,26.45
2023-05-14T16:42:48.476Z,27.02
2023-05-14T16:45:15.704Z,26.53
2023-05-14T16:47:42.078Z,24.95
2023-05-14T16:50:08.817Z,26.12
2023-05-14T16:52:35.242Z,26.42
2023-05-14T16:55:01.613Z,24.18
2023-05-14T16:57:28.128Z,22.04
2023-05-14T16:59:54.543Z,22.30
2023-05-14T17:02:20.905Z,21.29
2023-05-14T17:04:47.318Z,20.49
2023-05-14T17:07:13.764Z,20.11
2023-05-14T17:09:40.251Z,21.52
2023-05-14T17:12:07.014Z,24.44
2023-05-14T17:14:33.368Z,25.50
2023-05-14T17:16:59.737Z,26.87
2023-05-14T17:19:26.116Z,26.46
2023-05-14T17:21:52.491Z,24.66
2023-05-14T17:24:18.874Z,24.67
2023-05-14T17:26:45.413Z,25.67
2023-05-14T17:29:11.818Z,25.03
2023-05-14T17:31:38.253Z,24.64
2023-05-14T17:34:04.646Z,26.52
2023-05-14T17:36:32.252Z,28.27
2023-05-14T17:38:58.633Z,26.50
2023-05-14T17:41:25.017Z,25.84
2023-05-14T17:43:52.485Z,26.17
2023-05-14T17:46:19.060Z,25.63
2023-05-14T17:48:45.547Z,25.59
2023-05-14T17:51:11.916Z,26.62
2023-05-14T17:53:38.286Z,27.02
2023-05-14T17:56:05.168Z,29.45
2023-05-14T17:58:31.528Z,28.93
2023-05-14T18:00:57.914Z,28.44
2023-05-14T18:03:24.435Z,29.57
2023-05-14T18:05:51.125Z,30.11
2023-05-14T18:08:17.548Z,30.93
2023-05-14T18:10:43.977Z,30.14
2023-05-14T18:13:10.412Z,31.48
2023-05-14T18:15:36.970Z,31.44
2023-05-14T18:18:03.474Z,31.01
2023-05-14T18:20:29.938Z,31.89
2023-05-14T18:22:56.320Z,31.22
2023-05-14T18:25:22.979Z,31.25
2023-05-14T18:27:49.678Z,32.15
2023-05-14T18:30:16.158Z,31.86
2023-05-14T18:32:44.489Z,32.22
2023-05-14T18:35:12.407Z,32.53
2023-05-14T18:37:39.142Z,32.61
2023-05-14T18:40:06.982Z,32.72
2023-05-14T18:42:33.915Z,33.79
2023-05-14T18:45:00.445Z,33.02
2023-05-14T18:47:26.960Z,33.70
2023-05-14T18:49:55.738Z,34.47
2023-05-14T18:52:22.822Z,35.10
2023-05-14T18:54:50.373Z,34.77
2023-05-14T18:57:17.027Z,34.42
2023-05-14T18:59:43.419Z,33.42
2023-05-14T19:02:10.108Z,34.22
2023-05-14T19:04:50.645Z,34.29
2023-05-14T19:07:18.588Z,34.09
2023-05-14T19:09:44.976Z,33.35
2023-05-14T19:12:11.352Z,33.98
2023-05-14T19:14:37.782Z,33.98
2023-05-14T19:17:04.762Z,34.43
2023-05-14T19:19:31.266Z,34.80
2023-05-14T19:21:57.626Z,35.00
2023-05-14T19:24:24.039Z,35.61
2023-05-14T19:26:50.474Z,35.34
2023-05-14T19:29:16.833Z,35.41
2023-05-14T19:31:43.268Z,35.45
2023-05-14T19:34:10.061Z,35.47
2023-05-14T19:36:36.437Z,36.09
2023-05-14T19:39:03.087Z,35.45
2023-05-14T19:41:29.493Z,35.64
2023-05-14T19:43:55.882Z,36.11
2023-05-14T19:46:22.306Z,36.37
2023-05-14T19:48:48.716Z,37.17
2023-05-14T19:51:15.159Z,36.44
2023-05-14T19:53:41.558Z,37.39
2023-05-14T19:56:08.017Z,37.40
2023-05-14T19:58:34.384Z,38.15
2023-05-14T20:01:00.922Z,37.15
2023-05-14T20:03:27.463Z,37.04
2023-05-14T20:05:55.180Z,36.59
2023-05-14T20:08:21.674Z,37.86
2023-05-14T20:10:48.373Z,37.41
2023-05-14T20:13:14.999Z,37.70
2023-05-14T20:15:41.445Z,37.48
2023-05-14T20:18:08.026Z,38.15
2023-05-14T20:20:34.513Z,37.96
2023-05-14T20:23:00.894Z,38.99
2023-05-14T20:25:28.485Z,39.00
2023-05-14T20:27:55.276Z,38.90
2023-05-14T20:30:21.685Z,39.75
2023-05-14T20:32:48.141Z,39.59
2023-05-14T20:35:14.555Z,40.24
2023-05-14T20:37:41.274Z,39.47
2023-05-14T20:40:10.525Z,39.66
2023-05-14T20:42:37.047Z,40.41
2023-05-14T20:45:03.829Z,40.45
2023-05-14T20:47:31.950Z,40.79
2023-05-14T20:49:58.631Z,41.59
2023-05-14T20:52:25.031Z,42.22
2023-05-14T20:54:51.441Z,42.63
2023-05-14T20:57:18.922Z,43.33
2023-05-14T20:59:45.959Z,42.53
2023-05-14T21:02:12.712Z,42.29
2023-05-14T21:04:39.246Z,42.10
2023-05-14T21:07:06.197Z,42.34
2023-05-14T21:09:32.869Z,43.02
2023-05-14T21:11:59.288Z,42.09
2023-05-14T21:14:25.776Z,42.50
2023-05-14T21:16:52.310Z,41.91
2023-05-14T21:19:18.837Z,41.98
2023-05-14T21:21:45.615Z,42.24
2023-05-14T21:24:12.004Z,42.48
2023-05-14T21:26:40.270Z,43.34
2023-05-14T21:29:06.875Z,43.76
2023-05-14T21:31:33.318Z,43.28
2023-05-14T21:33:59.715Z,44.30
2023-05-14T21:36:26.085Z,43.42
2023-05-14T21:38:55.534Z,43.08
2023-05-14T21:41:22.058Z,44.01
2023-05-14T21:43:48.505Z,44.31
2023-05-14T21:46:14.962Z,43.91
2023-05-14T21:48:43.385Z,44.18
2023-05-14T21:51:10.110Z,44.86
2023-05-14T21:53:36.502Z,46.46
2023-05-14T21:56:02.916Z,48.06
2023-05-14T21:58:29.273Z,48.01
2023-05-14T22:00:55.664Z,47.87
2023-05-14T22:03:23.158Z,48.47
2023-05-14T22:05:49.627Z,48.52
2023-05-14T22:08:17.568Z,48.25
2023-05-14T22:10:44.410Z,48.19
2023-05-14T22:13:10.997Z,47.64
2023-05-14T22:15:37.873Z,47.20
2023-05-14T22:18:04.460Z,47.04
2023-05-14T22:20:30.897Z,46.94
2023-05-14T22:22:57.287Z,47.34
2023-05-14T22:25:23.955Z,47.63
2023-05-14T22:27:50.492Z,48.14
2023-05-14T22:30:16.983Z,47.97
2023-05-14T22:32:43.371Z,48.17
2023-05-14T22:35:09.830Z,47.95
2023-05-14T22:37:36.180Z,46.87
2023-05-14T22:40:05.070Z,46.75
2023-05-14T22:42:31.482Z,47.22
2023-05-14T22:44:57.869Z,48.82
2023-05-14T22:47:25.196Z,48.55
2023-05-14T22:49:52.400Z,47.43
2023-05-14T22:52:18.901Z,48.92
2023-05-14T22:54:46.587Z,48.65
2023-05-14T22:57:12.993Z,48.91
2023-05-14T22:59:39.505Z,48.71
2023-05-14T23:02:06.639Z,47.27
2023-05-14T23:04:33.234Z,48.42
2023-05-14T23:06:59.655Z,49.13
2023-05-14T23:09:26.017Z,48.71
2023-05-14T23:11:52.406Z,49.09
2023-05-14T23:14:18.803Z,48.57
2023-05-14T23:16:45.226Z,47.51
2023-05-14T23:19:11.820Z,47.97
2023-05-14T23:21:38.340Z,48.61
2023-05-14T23:24:04.860Z,48.98
2023-05-14T23:26:31.429Z,48.42
2023-05-14T23:28:57.781Z,48.59
2023-05-14T23:31:24.245Z,48.58
2023-05-14T23:33:50.705Z,49.08
2023-05-14T23:36:17.101Z,49.19
2023-05-14T23:38:43.594Z,50.34
2023-05-14T23:41:10.086Z,48.75
2023-05-14T23:43:36.637Z,50.03
2023-05-14T23:46:03.079Z,49.34
2023-05-14T23:48:29.844Z,50.14
2023-05-14T23:50:56.207Z,48.61
2023-05-14T23:53:23.273Z,48.83
2023-05-14T23:55:49.749Z,48.53
2023-05-14T23:58:16.183Z,48.39
